Saundersfoot, United Kingdom
Current Conditions -  °F | °C
As of 4:50 AM on Friday 31 Oct 2014 (Local Time) from EGOP Reporting Station
Broken Clouds Broken Clouds  
Wind Chill: 61°   Ceiling: 2200
Heat Index: 61°   Visibility: 4mi
Dew Point: 59°   Wind: 23mph
Humidity: 94%   Direction: 170°S
Pressure: 29.91"   Gusts: NA
Location:  51.71°N, 4.7°W
Report Text: EGOP 310450Z AUTO 17020KT 7000 // SCT014/// BKN022/// 16/15 Q1013
Loading
Personal Weather Stations






























Interactive Weather Map
Tropical Storm Tracking
New forecast layout! Learn more

10-Day Weather Forecast

Advertisements
Track Severe Weather on mobile